sensor_id;sensor_type;location;lat;lon;timestamp;P1;durP1;ratioP1;P2;durP2;ratioP2
38935;SDS011;66589;47.458;9.644;2023-04-08T03:02:09;3.47;;;1.50;;
38935;SDS011;66589;47.458;9.644;2023-04-08T03:04:34;3.15;;;1.30;;
38935;SDS011;66589;47.458;9.644;2023-04-08T03:07:00;3.35;;;1.02;;
38935;SDS011;66589;47.458;9.644;2023-04-08T03:09:26;3.20;;;1.33;;
38935;SDS011;66589;47.458;9.644;2023-04-08T03:11:51;3.20;;;1.50;;
38935;SDS011;66589;47.458;9.644;2023-04-08T03:14:19;3.00;;;1.40;;
38935;SDS011;66589;47.458;9.644;2023-04-08T03:16:46;2.58;;;1.35;;
38935;SDS011;66589;47.458;9.644;2023-04-08T03:19:11;3.05;;;1.40;;
38935;SDS011;66589;47.458;9.644;2023-04-08T03:21:37;2.50;;;1.00;;
38935;SDS011;66589;47.458;9.644;2023-04-08T03:24:02;2.85;;;1.17;;
38935;SDS011;66589;47.458;9.644;2023-04-08T03:26:28;2.70;;;1.30;;
38935;SDS011;66589;47.458;9.644;2023-04-08T03:28:54;3.13;;;1.20;;
38935;SDS011;66589;47.458;9.644;2023-04-08T03:31:20;2.92;;;1.30;;
38935;SDS011;66589;47.458;9.644;2023-04-08T03:33:46;2.75;;;1.20;;
38935;SDS011;66589;47.458;9.644;2023-04-08T03:36:11;3.97;;;1.10;;
38935;SDS011;66589;47.458;9.644;2023-04-08T03:38:37;3.35;;;1.17;;
38935;SDS011;66589;47.458;9.644;2023-04-08T03:41:03;2.88;;;1.40;;
38935;SDS011;66589;47.458;9.644;2023-04-08T03:43:29;3.03;;;1.02;;
38935;SDS011;66589;47.458;9.644;2023-04-08T03:45:54;2.92;;;1.42;;
38935;SDS011;66589;47.458;9.644;2023-04-08T03:48:20;4.47;;;1.73;;
38935;SDS011;66589;47.458;9.644;2023-04-08T03:50:47;3.20;;;1.63;;
38935;SDS011;66589;47.458;9.644;2023-04-08T03:53:12;3.17;;;1.52;;
38935;SDS011;66589;47.458;9.644;2023-04-08T03:55:38;3.40;;;1.80;;
38935;SDS011;66589;47.458;9.644;2023-04-08T03:58:04;3.10;;;1.75;;
38935;SDS011;66589;47.458;9.644;2023-04-08T04:00:30;3.22;;;1.35;;
38935;SDS011;66589;47.458;9.644;2023-04-08T04:02:56;3.83;;;1.77;;
38935;SDS011;66589;47.458;9.644;2023-04-08T04:05:21;4.90;;;2.08;;
38935;SDS011;66589;47.458;9.644;2023-04-08T04:07:47;4.35;;;1.98;;
38935;SDS011;66589;47.458;9.644;2023-04-08T04:10:13;4.20;;;1.95;;
38935;SDS011;66589;47.458;9.644;2023-04-08T04:12:38;3.28;;;1.65;;
38935;SDS011;66589;47.458;9.644;2023-04-08T04:15:04;3.60;;;1.70;;
38935;SDS011;66589;47.458;9.644;2023-04-08T04:17:31;3.95;;;2.00;;
38935;SDS011;66589;47.458;9.644;2023-04-08T04:19:56;5.30;;;2.03;;
38935;SDS011;66589;47.458;9.644;2023-04-08T04:22:22;4.57;;;2.80;;
38935;SDS011;66589;47.458;9.644;2023-04-08T04:24:48;4.95;;;2.38;;
38935;SDS011;66589;47.458;9.644;2023-04-08T04:27:14;4.00;;;2.08;;
38935;SDS011;66589;47.458;9.644;2023-04-08T04:29:41;3.83;;;2.00;;
38935;SDS011;66589;47.458;9.644;2023-04-08T04:32:08;4.30;;;2.20;;
38935;SDS011;66589;47.458;9.644;2023-04-08T04:34:33;4.45;;;2.20;;
38935;SDS011;66589;47.458;9.644;2023-04-08T04:36:59;4.38;;;2.13;;
38935;SDS011;66589;47.458;9.644;2023-04-08T04:39:25;4.28;;;2.17;;
38935;SDS011;66589;47.458;9.644;2023-04-08T04:41:51;5.30;;;3.15;;
38935;SDS011;66589;47.458;9.644;2023-04-08T04:44:16;4.28;;;2.28;;
38935;SDS011;66589;47.458;9.644;2023-04-08T04:46:42;5.25;;;2.30;;
38935;SDS011;66589;47.458;9.644;2023-04-08T04:49:08;4.32;;;2.50;;
38935;SDS011;66589;47.458;9.644;2023-04-08T04:51:33;4.63;;;2.85;;
38935;SDS011;66589;47.458;9.644;2023-04-08T04:53:59;4.82;;;2.60;;
38935;SDS011;66589;47.458;9.644;2023-04-08T04:56:25;4.57;;;2.53;;
38935;SDS011;66589;47.458;9.644;2023-04-08T04:58:51;6.60;;;3.08;;
38935;SDS011;66589;47.458;9.644;2023-04-08T05:01:16;4.57;;;2.25;;
38935;SDS011;66589;47.458;9.644;2023-04-08T05:03:42;5.75;;;2.67;;
38935;SDS011;66589;47.458;9.644;2023-04-08T05:06:08;4.43;;;2.38;;
38935;SDS011;66589;47.458;9.644;2023-04-08T05:08:35;5.47;;;2.85;;
38935;SDS011;66589;47.458;9.644;2023-04-08T05:11:01;5.40;;;2.70;;
38935;SDS011;66589;47.458;9.644;2023-04-08T05:13:27;5.65;;;2.97;;
38935;SDS011;66589;47.458;9.644;2023-04-08T05:15:53;6.00;;;2.70;;
38935;SDS011;66589;47.458;9.644;2023-04-08T05:18:19;4.95;;;2.42;;
38935;SDS011;66589;47.458;9.644;2023-04-08T05:20:44;4.88;;;2.20;;
38935;SDS011;66589;47.458;9.644;2023-04-08T05:23:10;3.50;;;1.77;;
38935;SDS011;66589;47.458;9.644;2023-04-08T05:25:36;5.45;;;2.20;;
38935;SDS011;66589;47.458;9.644;2023-04-08T05:28:02;4.88;;;2.70;;
38935;SDS011;66589;47.458;9.644;2023-04-08T05:30:28;4.35;;;2.28;;
38935;SDS011;66589;47.458;9.644;2023-04-08T05:32:54;5.43;;;2.38;;
38935;SDS011;66589;47.458;9.644;2023-04-08T05:35:20;3.47;;;1.92;;
38935;SDS011;66589;47.458;9.644;2023-04-08T05:37:46;4.05;;;2.33;;
38935;SDS011;66589;47.458;9.644;2023-04-08T05:40:11;6.78;;;2.60;;
38935;SDS011;66589;47.458;9.644;2023-04-08T05:42:37;5.35;;;2.60;;
38935;SDS011;66589;47.458;9.644;2023-04-08T05:45:03;4.90;;;2.22;;
38935;SDS011;66589;47.458;9.644;2023-04-08T05:47:29;6.80;;;2.17;;
38935;SDS011;66589;47.458;9.644;2023-04-08T05:49:55;5.97;;;2.80;;
38935;SDS011;66589;47.458;9.644;2023-04-08T05:52:21;4.20;;;2.20;;
38935;SDS011;66589;47.458;9.644;2023-04-08T05:54:46;6.05;;;2.80;;
38935;SDS011;66589;47.458;9.644;2023-04-08T05:57:12;4.38;;;2.30;;
38935;SDS011;66589;47.458;9.644;2023-04-08T05:59:38;5.05;;;2.28;;
38935;SDS011;66589;47.458;9.644;2023-04-08T06:02:03;4.25;;;2.03;;
38935;SDS011;66589;47.458;9.644;2023-04-08T06:04:29;6.72;;;2.15;;
38935;SDS011;66589;47.458;9.644;2023-04-08T06:06:55;4.65;;;1.70;;
38935;SDS011;66589;47.458;9.644;2023-04-08T06:09:23;6.30;;;1.80;;
38935;SDS011;66589;47.458;9.644;2023-04-08T06:11:50;4.70;;;2.13;;
38935;SDS011;66589;47.458;9.644;2023-04-08T06:14:16;4.68;;;1.70;;
38935;SDS011;66589;47.458;9.644;2023-04-08T06:16:41;2.88;;;1.50;;
38935;SDS011;66589;47.458;9.644;2023-04-08T06:19:07;5.25;;;1.50;;
38935;SDS011;66589;47.458;9.644;2023-04-08T06:21:33;2.78;;;1.27;;
38935;SDS011;66589;47.458;9.644;2023-04-08T06:23:58;3.30;;;1.50;;
38935;SDS011;66589;47.458;9.644;2023-04-08T06:26:24;3.33;;;1.50;;
38935;SDS011;66589;47.458;9.644;2023-04-08T06:28:50;3.92;;;1.98;;
38935;SDS011;66589;47.458;9.644;2023-04-08T06:31:16;3.53;;;1.48;;
38935;SDS011;66589;47.458;9.644;2023-04-08T06:33:41;3.67;;;1.80;;
38935;SDS011;66589;47.458;9.644;2023-04-08T06:36:07;3.33;;;1.60;;
38935;SDS011;66589;47.458;9.644;2023-04-08T06:38:33;3.40;;;1.58;;
38935;SDS011;66589;47.458;9.644;2023-04-08T06:41:02;3.72;;;1.80;;
38935;SDS011;66589;47.458;9.644;2023-04-08T06:43:32;2.58;;;1.48;;
38935;SDS011;66589;47.458;9.644;2023-04-08T06:45:58;3.20;;;1.65;;
38935;SDS011;66589;47.458;9.644;2023-04-08T06:48:24;2.65;;;1.30;;
38935;SDS011;66589;47.458;9.644;2023-04-08T06:50:57;3.45;;;1.42;;
38935;SDS011;66589;47.458;9.644;2023-04-08T06:53:24;3.60;;;1.40;;
38935;SDS011;66589;47.458;9.644;2023-04-08T06:55:50;3.22;;;1.55;;
38935;SDS011;66589;47.458;9.644;2023-04-08T06:58:16;3.28;;;1.08;;
38935;SDS011;66589;47.458;9.644;2023-04-08T07:00:42;2.40;;;1.13;;
38935;SDS011;66589;47.458;9.644;2023-04-08T07:03:08;5.38;;;1.40;;
38935;SDS011;66589;47.458;9.644;2023-04-08T07:05:35;3.47;;;1.67;;
38935;SDS011;66589;47.458;9.644;2023-04-08T07:08:01;3.13;;;1.25;;
38935;SDS011;66589;47.458;9.644;2023-04-08T07:10:27;3.03;;;1.45;;
38935;SDS011;66589;47.458;9.644;2023-04-08T07:12:53;3.00;;;1.30;;
38935;SDS011;66589;47.458;9.644;2023-04-08T07:15:19;4.30;;;1.50;;
38935;SDS011;66589;47.458;9.644;2023-04-08T07:17:44;3.97;;;1.40;;
38935;SDS011;66589;47.458;9.644;2023-04-08T07:20:11;3.65;;;1.50;;
38935;SDS011;66589;47.458;9.644;2023-04-08T07:22:38;2.33;;;1.00;;
38935;SDS011;66589;47.458;9.644;2023-04-08T07:25:04;3.85;;;1.30;;
38935;SDS011;66589;47.458;9.644;2023-04-08T07:27:30;2.78;;;1.15;;
38935;SDS011;66589;47.458;9.644;2023-04-08T07:29:57;2.47;;;0.98;;
38935;SDS011;66589;47.458;9.644;2023-04-08T07:32:23;2.78;;;1.15;;
38935;SDS011;66589;47.458;9.644;2023-04-08T07:34:49;3.20;;;1.23;;
38935;SDS011;66589;47.458;9.644;2023-04-08T07:37:15;3.40;;;1.42;;
38935;SDS011;66589;47.458;9.644;2023-04-08T07:39:44;3.03;;;1.23;;
38935;SDS011;66589;47.458;9.644;2023-04-08T07:42:10;2.42;;;1.10;;
38935;SDS011;66589;47.458;9.644;2023-04-08T07:44:36;3.38;;;1.23;;
38935;SDS011;66589;47.458;9.644;2023-04-08T07:47:04;3.33;;;0.93;;
38935;SDS011;66589;47.458;9.644;2023-04-08T07:49:30;2.25;;;0.80;;
38935;SDS011;66589;47.458;9.644;2023-04-08T07:51:56;2.03;;;0.63;;
38935;SDS011;66589;47.458;9.644;2023-04-08T07:54:21;2.20;;;0.70;;
38935;SDS011;66589;47.458;9.644;2023-04-08T07:56:47;2.28;;;0.50;;
38935;SDS011;66589;47.458;9.644;2023-04-08T07:59:13;2.47;;;0.77;;
38935;SDS011;66589;47.458;9.644;2023-04-08T08:01:38;2.58;;;0.77;;
38935;SDS011;66589;47.458;9.644;2023-04-08T08:04:04;1.88;;;0.68;;
38935;SDS011;66589;47.458;9.644;2023-04-08T08:06:30;2.13;;;0.80;;
38935;SDS011;66589;47.458;9.644;2023-04-08T08:08:58;4.10;;;0.65;;
38935;SDS011;66589;47.458;9.644;2023-04-08T08:11:25;2.35;;;0.90;;
38935;SDS011;66589;47.458;9.644;2023-04-08T08:13:52;1.75;;;0.60;;
38935;SDS011;66589;47.458;9.644;2023-04-08T08:16:18;2.17;;;0.90;;
38935;SDS011;66589;47.458;9.644;2023-04-08T08:18:43;1.98;;;0.82;;
38935;SDS011;66589;47.458;9.644;2023-04-08T08:21:09;2.53;;;0.98;;
38935;SDS011;66589;47.458;9.644;2023-04-08T08:23:35;3.85;;;1.13;;
38935;SDS011;66589;47.458;9.644;2023-04-08T08:26:02;2.90;;;1.13;;
38935;SDS011;66589;47.458;9.644;2023-04-08T08:28:33;1.85;;;0.70;;
38935;SDS011;66589;47.458;9.644;2023-04-08T08:31:00;2.00;;;0.45;;
38935;SDS011;66589;47.458;9.644;2023-04-08T08:33:27;2.67;;;0.82;;
38935;SDS011;66589;47.458;9.644;2023-04-08T08:35:53;4.55;;;1.95;;
38935;SDS011;66589;47.458;9.644;2023-04-08T08:38:19;5.30;;;1.35;;
38935;SDS011;66589;47.458;9.644;2023-04-08T08:40:45;1.60;;;0.60;;
38935;SDS011;66589;47.458;9.644;2023-04-08T08:43:11;1.45;;;0.40;;
38935;SDS011;66589;47.458;9.644;2023-04-08T08:45:40;2.30;;;0.52;;
38935;SDS011;66589;47.458;9.644;2023-04-08T08:48:06;1.75;;;0.88;;
38935;SDS011;66589;47.458;9.644;2023-04-08T08:50:33;1.83;;;0.40;;
38935;SDS011;66589;47.458;9.644;2023-04-08T08:52:59;1.77;;;0.50;;
38935;SDS011;66589;47.458;9.644;2023-04-08T08:55:28;1.77;;;0.65;;
38935;SDS011;66589;47.458;9.644;2023-04-08T08:58:01;1.02;;;0.32;;
38935;SDS011;66589;47.458;9.644;2023-04-08T09:00:33;1.85;;;0.57;;
38935;SDS011;66589;47.458;9.644;2023-04-08T09:08:23;2.03;;;0.50;;
38935;SDS011;66589;47.458;9.644;2023-04-08T09:10:50;2.20;;;0.60;;
38935;SDS011;66589;47.458;9.644;2023-04-08T09:13:16;1.77;;;0.50;;
38935;SDS011;66589;47.458;9.644;2023-04-08T09:18:30;3.90;;;0.43;;
38935;SDS011;66589;47.458;9.644;2023-04-08T09:21:00;2.15;;;0.77;;
38935;SDS011;66589;47.458;9.644;2023-04-08T09:24:09;1.40;;;0.40;;
38935;SDS011;66589;47.458;9.644;2023-04-08T09:26:19;2.42;;;0.50;;
38935;SDS011;66589;47.458;9.644;2023-04-08T09:28:57;3.95;;;0.70;;
38935;SDS011;66589;47.458;9.644;2023-04-08T09:31:31;2.83;;;0.90;;
38935;SDS011;66589;47.458;9.644;2023-04-08T09:34:12;3.15;;;0.70;;
38935;SDS011;66589;47.458;9.644;2023-04-08T09:36:39;2.03;;;0.60;;
38935;SDS011;66589;47.458;9.644;2023-04-08T09:39:05;2.25;;;0.82;;
38935;SDS011;66589;47.458;9.644;2023-04-08T09:41:34;2.95;;;0.93;;
38935;SDS011;66589;47.458;9.644;2023-04-08T09:44:05;2.92;;;1.05;;
38935;SDS011;66589;47.458;9.644;2023-04-08T09:46:33;2.22;;;0.77;;
38935;SDS011;66589;47.458;9.644;2023-04-08T09:49:04;2.97;;;0.63;;
38935;SDS011;66589;47.458;9.644;2023-04-08T09:51:52;2.88;;;0.80;;
38935;SDS011;66589;47.458;9.644;2023-04-08T09:54:29;2.53;;;1.00;;
38935;SDS011;66589;47.458;9.644;2023-04-08T09:57:09;4.70;;;1.30;;
38935;SDS011;66589;47.458;9.644;2023-04-08T09:59:37;2.55;;;1.20;;
38935;SDS011;66589;47.458;9.644;2023-04-08T10:02:12;2.97;;;1.40;;
38935;SDS011;66589;47.458;9.644;2023-04-08T10:04:44;2.67;;;1.02;;
38935;SDS011;66589;47.458;9.644;2023-04-08T10:07:13;3.47;;;1.58;;
38935;SDS011;66589;47.458;9.644;2023-04-08T10:09:39;3.63;;;1.50;;
38935;SDS011;66589;47.458;9.644;2023-04-08T10:12:07;3.10;;;1.50;;
38935;SDS011;66589;47.458;9.644;2023-04-08T10:14:33;2.63;;;1.30;;
38935;SDS011;66589;47.458;9.644;2023-04-08T10:17:23;4.53;;;1.60;;
38935;SDS011;66589;47.458;9.644;2023-04-08T10:19:50;7.18;;;2.63;;
38935;SDS011;66589;47.458;9.644;2023-04-08T10:27:41;2.85;;;1.40;;
38935;SDS011;66589;47.458;9.644;2023-04-08T10:33:09;2.67;;;1.70;;
38935;SDS011;66589;47.458;9.644;2023-04-08T10:35:52;3.53;;;1.77;;
38935;SDS011;66589;47.458;9.644;2023-04-08T10:38:19;3.38;;;1.80;;
38935;SDS011;66589;47.458;9.644;2023-04-08T10:40:46;4.60;;;2.05;;
38935;SDS011;66589;47.458;9.644;2023-04-08T10:43:13;10.52;;;2.95;;
38935;SDS011;66589;47.458;9.644;2023-04-08T10:45:40;3.70;;;1.77;;
38935;SDS011;66589;47.458;9.644;2023-04-08T10:48:18;2.97;;;1.42;;
38935;SDS011;66589;47.458;9.644;2023-04-08T10:50:55;4.07;;;2.60;;
38935;SDS011;66589;47.458;9.644;2023-04-08T10:53:33;3.35;;;1.90;;
38935;SDS011;66589;47.458;9.644;2023-04-08T10:58:52;3.00;;;1.70;;
38935;SDS011;66589;47.458;9.644;2023-04-08T11:01:20;8.35;;;4.15;;
38935;SDS011;66589;47.458;9.644;2023-04-08T11:03:46;4.43;;;2.35;;
38935;SDS011;66589;47.458;9.644;2023-04-08T11:06:13;4.40;;;2.17;;
38935;SDS011;66589;47.458;9.644;2023-04-08T11:08:39;3.97;;;2.17;;
38935;SDS011;66589;47.458;9.644;2023-04-08T11:11:05;9.13;;;4.70;;
38935;SDS011;66589;47.458;9.644;2023-04-08T11:13:35;4.72;;;2.58;;
38935;SDS011;66589;47.458;9.644;2023-04-08T11:16:06;4.57;;;2.42;;
38935;SDS011;66589;47.458;9.644;2023-04-08T11:18:42;5.15;;;2.20;;
38935;SDS011;66589;47.458;9.644;2023-04-08T11:21:09;3.45;;;2.42;;
38935;SDS011;66589;47.458;9.644;2023-04-08T11:23:35;4.38;;;2.50;;
38935;SDS011;66589;47.458;9.644;2023-04-08T11:26:01;3.85;;;2.30;;
38935;SDS011;66589;47.458;9.644;2023-04-08T11:28:28;3.38;;;2.20;;
38935;SDS011;66589;47.458;9.644;2023-04-08T11:30:54;3.88;;;2.42;;
38935;SDS011;66589;47.458;9.644;2023-04-08T11:33:23;5.57;;;3.38;;
38935;SDS011;66589;47.458;9.644;2023-04-08T11:35:50;5.50;;;3.10;;
38935;SDS011;66589;47.458;9.644;2023-04-08T11:38:16;5.30;;;2.50;;
38935;SDS011;66589;47.458;9.644;2023-04-08T11:43:22;7.85;;;4.68;;
38935;SDS011;66589;47.458;9.644;2023-04-08T11:45:48;6.93;;;3.08;;
38935;SDS011;66589;47.458;9.644;2023-04-08T11:48:15;5.40;;;3.05;;
38935;SDS011;66589;47.458;9.644;2023-04-08T11:50:41;5.97;;;3.17;;
38935;SDS011;66589;47.458;9.644;2023-04-08T11:53:17;7.30;;;3.03;;
38935;SDS011;66589;47.458;9.644;2023-04-08T11:55:49;5.20;;;2.63;;
38935;SDS011;66589;47.458;9.644;2023-04-08T11:58:16;5.93;;;3.38;;
38935;SDS011;66589;47.458;9.644;2023-04-08T12:00:42;6.85;;;3.25;;
38935;SDS011;66589;47.458;9.644;2023-04-08T12:03:09;5.25;;;2.95;;
38935;SDS011;66589;47.458;9.644;2023-04-08T12:05:36;4.40;;;2.97;;
38935;SDS011;66589;47.458;9.644;2023-04-08T12:08:02;6.32;;;3.10;;
38935;SDS011;66589;47.458;9.644;2023-04-08T12:10:28;5.00;;;2.97;;
38935;SDS011;66589;47.458;9.644;2023-04-08T12:12:54;7.85;;;4.22;;
38935;SDS011;66589;47.458;9.644;2023-04-08T12:15:20;5.50;;;3.33;;
38935;SDS011;66589;47.458;9.644;2023-04-08T12:17:45;8.27;;;3.95;;
38935;SDS011;66589;47.458;9.644;2023-04-08T12:20:11;7.63;;;4.00;;
38935;SDS011;66589;47.458;9.644;2023-04-08T12:22:37;8.63;;;4.45;;
38935;SDS011;66589;47.458;9.644;2023-04-08T12:25:03;8.25;;;3.97;;
38935;SDS011;66589;47.458;9.644;2023-04-08T12:27:30;8.05;;;3.40;;
38935;SDS011;66589;47.458;9.644;2023-04-08T12:30:00;6.25;;;3.97;;
38935;SDS011;66589;47.458;9.644;2023-04-08T12:32:26;6.68;;;3.95;;
38935;SDS011;66589;47.458;9.644;2023-04-08T12:34:52;6.57;;;3.42;;
38935;SDS011;66589;47.458;9.644;2023-04-08T12:37:17;9.40;;;4.53;;
38935;SDS011;66589;47.458;9.644;2023-04-08T12:39:44;7.05;;;3.47;;
38935;SDS011;66589;47.458;9.644;2023-04-08T12:42:11;6.10;;;3.90;;
38935;SDS011;66589;47.458;9.644;2023-04-08T12:44:37;6.78;;;3.70;;
38935;SDS011;66589;47.458;9.644;2023-04-08T12:47:03;6.53;;;3.58;;
38935;SDS011;66589;47.458;9.644;2023-04-08T12:49:28;5.65;;;3.42;;
38935;SDS011;66589;47.458;9.644;2023-04-08T12:51:54;6.55;;;4.03;;
38935;SDS011;66589;47.458;9.644;2023-04-08T12:54:20;5.60;;;3.38;;
38935;SDS011;66589;47.458;9.644;2023-04-08T12:56:45;6.38;;;3.75;;
38935;SDS011;66589;47.458;9.644;2023-04-08T12:59:12;6.45;;;3.97;;
38935;SDS011;66589;47.458;9.644;2023-04-08T13:01:38;5.90;;;3.85;;
38935;SDS011;66589;47.458;9.644;2023-04-08T13:04:04;7.35;;;3.60;;
38935;SDS011;66589;47.458;9.644;2023-04-08T13:06:30;7.13;;;3.88;;
38935;SDS011;66589;47.458;9.644;2023-04-08T13:08:56;6.65;;;3.97;;
38935;SDS011;66589;47.458;9.644;2023-04-08T13:11:21;7.22;;;3.83;;
38935;SDS011;66589;47.458;9.644;2023-04-08T13:13:47;6.35;;;3.78;;
38935;SDS011;66589;47.458;9.644;2023-04-08T13:16:13;7.45;;;3.70;;
38935;SDS011;66589;47.458;9.644;2023-04-08T13:18:39;7.60;;;3.75;;
38935;SDS011;66589;47.458;9.644;2023-04-08T13:21:06;7.38;;;3.97;;
38935;SDS011;66589;47.458;9.644;2023-04-08T13:23:32;6.93;;;4.03;;
38935;SDS011;66589;47.458;9.644;2023-04-08T13:25:57;7.75;;;4.78;;
38935;SDS011;66589;47.458;9.644;2023-04-08T13:28:23;6.63;;;4.10;;
38935;SDS011;66589;47.458;9.644;2023-04-08T13:30:49;7.25;;;4.13;;
38935;SDS011;66589;47.458;9.644;2023-04-08T13:33:15;7.15;;;4.28;;
38935;SDS011;66589;47.458;9.644;2023-04-08T13:35:41;9.48;;;3.67;;
38935;SDS011;66589;47.458;9.644;2023-04-08T13:38:07;6.63;;;4.15;;
38935;SDS011;66589;47.458;9.644;2023-04-08T13:40:33;9.25;;;4.90;;
38935;SDS011;66589;47.458;9.644;2023-04-08T13:42:58;8.23;;;5.32;;
38935;SDS011;66589;47.458;9.644;2023-04-08T13:45:24;7.80;;;4.72;;
38935;SDS011;66589;47.458;9.644;2023-04-08T13:47:50;8.88;;;4.10;;
38935;SDS011;66589;47.458;9.644;2023-04-08T13:50:16;8.95;;;4.78;;
38935;SDS011;66589;47.458;9.644;2023-04-08T13:52:41;8.80;;;4.20;;
38935;SDS011;66589;47.458;9.644;2023-04-08T13:55:07;7.85;;;4.80;;
38935;SDS011;66589;47.458;9.644;2023-04-08T13:57:33;7.78;;;4.57;;
38935;SDS011;66589;47.458;9.644;2023-04-08T13:59:58;7.32;;;3.47;;
38935;SDS011;66589;47.458;9.644;2023-04-08T14:02:24;7.32;;;3.83;;
38935;SDS011;66589;47.458;9.644;2023-04-08T14:04:50;8.75;;;3.65;;
38935;SDS011;66589;47.458;9.644;2023-04-08T14:07:16;8.82;;;4.82;;
38935;SDS011;66589;47.458;9.644;2023-04-08T14:09:43;8.40;;;5.03;;
38935;SDS011;66589;47.458;9.644;2023-04-08T14:12:08;8.35;;;4.70;;
38935;SDS011;66589;47.458;9.644;2023-04-08T14:14:34;7.70;;;4.72;;
38935;SDS011;66589;47.458;9.644;2023-04-08T14:17:00;7.55;;;4.18;;
38935;SDS011;66589;47.458;9.644;2023-04-08T14:19:26;8.10;;;4.20;;
38935;SDS011;66589;47.458;9.644;2023-04-08T14:21:51;8.77;;;4.85;;
38935;SDS011;66589;47.458;9.644;2023-04-08T14:24:17;8.07;;;4.53;;
38935;SDS011;66589;47.458;9.644;2023-04-08T14:26:43;10.30;;;4.90;;
38935;SDS011;66589;47.458;9.644;2023-04-08T14:29:08;6.88;;;3.80;;
38935;SDS011;66589;47.458;9.644;2023-04-08T14:31:34;6.57;;;4.07;;
38935;SDS011;66589;47.458;9.644;2023-04-08T14:34:00;7.07;;;3.97;;
38935;SDS011;66589;47.458;9.644;2023-04-08T14:36:26;7.20;;;4.13;;
38935;SDS011;66589;47.458;9.644;2023-04-08T14:38:53;8.13;;;4.10;;
38935;SDS011;66589;47.458;9.644;2023-04-08T14:41:19;8.85;;;4.80;;
38935;SDS011;66589;47.458;9.644;2023-04-08T14:43:45;8.82;;;4.78;;
38935;SDS011;66589;47.458;9.644;2023-04-08T14:46:11;10.48;;;4.68;;
38935;SDS011;66589;47.458;9.644;2023-04-08T14:48:37;8.43;;;4.75;;
38935;SDS011;66589;47.458;9.644;2023-04-08T14:51:03;7.45;;;3.70;;
38935;SDS011;66589;47.458;9.644;2023-04-08T14:53:29;6.43;;;3.08;;
38935;SDS011;66589;47.458;9.644;2023-04-08T14:55:55;3.42;;;1.50;;
38935;SDS011;66589;47.458;9.644;2023-04-08T14:58:21;5.40;;;0.82;;
38935;SDS011;66589;47.458;9.644;2023-04-08T15:00:47;3.10;;;1.10;;
38935;SDS011;66589;47.458;9.644;2023-04-08T15:03:13;1.55;;;0.57;;
38935;SDS011;66589;47.458;9.644;2023-04-08T15:05:39;1.88;;;0.40;;
38935;SDS011;66589;47.458;9.644;2023-04-08T15:08:05;1.30;;;0.40;;
38935;SDS011;66589;47.458;9.644;2023-04-08T15:10:30;1.92;;;0.50;;
38935;SDS011;66589;47.458;9.644;2023-04-08T15:12:56;1.45;;;0.50;;
38935;SDS011;66589;47.458;9.644;2023-04-08T15:15:22;4.72;;;1.30;;
38935;SDS011;66589;47.458;9.644;2023-04-08T15:17:48;2.20;;;0.60;;
38935;SDS011;66589;47.458;9.644;2023-04-08T15:20:14;2.83;;;0.52;;
38935;SDS011;66589;47.458;9.644;2023-04-08T15:22:40;3.17;;;1.23;;
38935;SDS011;66589;47.458;9.644;2023-04-08T15:25:06;3.58;;;1.10;;
38935;SDS011;66589;47.458;9.644;2023-04-08T15:27:32;3.03;;;0.88;;
38935;SDS011;66589;47.458;9.644;2023-04-08T15:29:58;3.53;;;0.90;;
38935;SDS011;66589;47.458;9.644;2023-04-08T15:32:25;3.78;;;0.90;;
38935;SDS011;66589;47.458;9.644;2023-04-08T15:34:51;2.80;;;0.75;;
38935;SDS011;66589;47.458;9.644;2023-04-08T15:37:17;2.42;;;0.63;;
38935;SDS011;66589;47.458;9.644;2023-04-08T15:39:42;1.88;;;0.52;;
38935;SDS011;66589;47.458;9.644;2023-04-08T15:42:08;1.83;;;0.68;;
38935;SDS011;66589;47.458;9.644;2023-04-08T15:44:34;4.53;;;0.75;;
38935;SDS011;66589;47.458;9.644;2023-04-08T15:47:00;3.58;;;0.57;;
38935;SDS011;66589;47.458;9.644;2023-04-08T15:49:26;6.07;;;0.93;;
38935;SDS011;66589;47.458;9.644;2023-04-08T15:51:52;5.47;;;1.42;;
38935;SDS011;66589;47.458;9.644;2023-04-08T15:54:18;2.33;;;0.90;;
38935;SDS011;66589;47.458;9.644;2023-04-08T15:56:44;3.83;;;1.05;;
38935;SDS011;66589;47.458;9.644;2023-04-08T15:59:13;3.42;;;1.30;;
38935;SDS011;66589;47.458;9.644;2023-04-08T16:01:39;2.75;;;1.00;;
38935;SDS011;66589;47.458;9.644;2023-04-08T16:04:06;1.92;;;0.80;;
38935;SDS011;66589;47.458;9.644;2023-04-08T16:06:32;4.43;;;0.80;;
38935;SDS011;66589;47.458;9.644;2023-04-08T16:08:58;1.85;;;0.75;;
38935;SDS011;66589;47.458;9.644;2023-04-08T16:11:24;2.63;;;1.13;;
38935;SDS011;66589;47.458;9.644;2023-04-08T16:13:50;3.08;;;1.20;;
38935;SDS011;66589;47.458;9.644;2023-04-08T16:16:16;2.75;;;1.10;;
38935;SDS011;66589;47.458;9.644;2023-04-08T16:18:42;2.40;;;0.95;;
38935;SDS011;66589;47.458;9.644;2023-04-08T16:21:08;4.90;;;1.10;;
38935;SDS011;66589;47.458;9.644;2023-04-08T16:23:35;2.53;;;1.23;;
38935;SDS011;66589;47.458;9.644;2023-04-08T16:26:05;3.30;;;1.10;;
38935;SDS011;66589;47.458;9.644;2023-04-08T16:28:34;2.53;;;0.98;;
38935;SDS011;66589;47.458;9.644;2023-04-08T16:31:01;3.72;;;0.90;;
38935;SDS011;66589;47.458;9.644;2023-04-08T16:33:28;2.25;;;0.95;;
38935;SDS011;66589;47.458;9.644;2023-04-08T16:35:57;2.38;;;0.93;;
38935;SDS011;66589;47.458;9.644;2023-04-08T16:38:24;5.05;;;1.00;;
38935;SDS011;66589;47.458;9.644;2023-04-08T16:40:50;3.33;;;1.00;;
38935;SDS011;66589;47.458;9.644;2023-04-08T16:43:17;4.47;;;0.90;;
38935;SDS011;66589;47.458;9.644;2023-04-08T16:45:43;2.08;;;0.90;;
38935;SDS011;66589;47.458;9.644;2023-04-08T16:48:08;6.10;;;0.90;;
38935;SDS011;66589;47.458;9.644;2023-04-08T16:50:36;2.70;;;1.20;;
38935;SDS011;66589;47.458;9.644;2023-04-08T16:53:03;4.13;;;1.10;;
38935;SDS011;66589;47.458;9.644;2023-04-08T16:55:31;6.15;;;1.35;;
38935;SDS011;66589;47.458;9.644;2023-04-08T16:57:57;5.50;;;1.35;;
38935;SDS011;66589;47.458;9.644;2023-04-08T17:00:24;3.22;;;1.40;;
38935;SDS011;66589;47.458;9.644;2023-04-08T17:02:50;3.63;;;1.80;;
38935;SDS011;66589;47.458;9.644;2023-04-08T17:05:20;7.57;;;3.28;;
38935;SDS011;66589;47.458;9.644;2023-04-08T17:07:46;5.47;;;2.10;;
38935;SDS011;66589;47.458;9.644;2023-04-08T17:10:12;4.45;;;2.10;;
38935;SDS011;66589;47.458;9.644;2023-04-08T17:12:37;4.57;;;1.90;;
38935;SDS011;66589;47.458;9.644;2023-04-08T17:15:03;4.60;;;2.00;;
38935;SDS011;66589;47.458;9.644;2023-04-08T17:17:29;3.47;;;1.80;;
38935;SDS011;66589;47.458;9.644;2023-04-08T17:19:55;4.43;;;2.22;;
38935;SDS011;66589;47.458;9.644;2023-04-08T17:22:20;5.00;;;2.47;;
38935;SDS011;66589;47.458;9.644;2023-04-08T17:24:46;5.68;;;2.50;;
38935;SDS011;66589;47.458;9.644;2023-04-08T17:27:12;4.25;;;2.40;;
38935;SDS011;66589;47.458;9.644;2023-04-08T17:29:38;5.05;;;2.58;;
38935;SDS011;66589;47.458;9.644;2023-04-08T17:32:03;5.28;;;2.63;;
38935;SDS011;66589;47.458;9.644;2023-04-08T17:34:29;4.50;;;2.25;;
38935;SDS011;66589;47.458;9.644;2023-04-08T17:36:56;5.35;;;2.72;;
38935;SDS011;66589;47.458;9.644;2023-04-08T17:39:22;6.03;;;2.40;;
38935;SDS011;66589;47.458;9.644;2023-04-08T17:41:48;4.40;;;1.83;;
38935;SDS011;66589;47.458;9.644;2023-04-08T17:44:14;4.43;;;2.03;;
38935;SDS011;66589;47.458;9.644;2023-04-08T17:46:39;4.22;;;2.10;;
38935;SDS011;66589;47.458;9.644;2023-04-08T17:49:05;6.07;;;2.97;;
38935;SDS011;66589;47.458;9.644;2023-04-08T17:51:31;7.35;;;3.42;;
38935;SDS011;66589;47.458;9.644;2023-04-08T17:53:57;7.53;;;3.65;;
38935;SDS011;66589;47.458;9.644;2023-04-08T17:56:22;5.20;;;2.60;;
38935;SDS011;66589;47.458;9.644;2023-04-08T17:58:48;7.60;;;2.88;;
38935;SDS011;66589;47.458;9.644;2023-04-08T18:01:14;5.97;;;2.60;;
38935;SDS011;66589;47.458;9.644;2023-04-08T18:03:41;7.00;;;2.58;;
38935;SDS011;66589;47.458;9.644;2023-04-08T18:06:06;6.15;;;2.38;;
38935;SDS011;66589;47.458;9.644;2023-04-08T18:08:33;4.40;;;2.13;;